createdAt,value
2018-10-01T00:01:49.136Z,1.92
2018-10-01T00:06:52.812Z,2.75
2018-10-01T00:11:56.616Z,2.20
2018-10-01T00:17:00.009Z,1.67
2018-10-01T00:22:08.577Z,1.87
2018-10-01T00:27:12.402Z,2.50
2018-10-01T00:32:15.693Z,1.90
2018-10-01T00:37:19.334Z,2.05
2018-10-01T00:42:22.688Z,2.75
2018-10-01T00:47:26.148Z,1.75
2018-10-01T00:52:29.481Z,3.02
2018-10-01T00:57:32.813Z,1.85
2018-10-01T01:02:36.116Z,2.87
2018-10-01T01:07:39.406Z,1.80
2018-10-01T01:12:42.818Z,2.08
2018-10-01T01:17:46.128Z,3.47
2018-10-01T01:22:49.441Z,1.70
2018-10-01T01:27:52.759Z,1.70
2018-10-01T01:32:56.061Z,1.62
2018-10-01T01:37:59.357Z,2.02
2018-10-01T01:43:02.668Z,1.20
2018-10-01T01:48:06.090Z,2.70
2018-10-01T01:53:10.661Z,1.98
2018-10-01T01:58:13.954Z,2.55
2018-10-01T02:03:17.258Z,2.05
2018-10-01T02:08:20.551Z,3.37
2018-10-01T02:13:23.845Z,2.50
2018-10-01T02:18:27.125Z,1.45
2018-10-01T02:23:30.409Z,2.12
2018-10-01T02:28:33.708Z,1.40
2018-10-01T02:33:37.009Z,2.27
2018-10-01T02:38:40.296Z,1.17
2018-10-01T02:43:43.589Z,2.65
2018-10-01T02:48:46.921Z,1.67
2018-10-01T02:53:55.469Z,1.77
2018-10-01T02:58:58.757Z,1.20
2018-10-01T03:04:02.049Z,1.62
2018-10-01T03:09:09.338Z,1.67
2018-10-01T03:14:12.967Z,1.72
2018-10-01T03:19:16.280Z,2.35
2018-10-01T03:24:19.593Z,1.65
2018-10-01T03:29:22.891Z,1.95
2018-10-01T03:34:26.189Z,1.67
2018-10-01T03:39:29.494Z,1.30
2018-10-01T03:44:32.781Z,2.02
2018-10-01T03:49:36.104Z,1.87
2018-10-01T03:54:39.370Z,1.40
2018-10-01T03:59:42.643Z,3.33
2018-10-01T04:04:45.925Z,3.30
2018-10-01T04:09:49.210Z,4.97
2018-10-01T04:14:52.550Z,4.97
2018-10-01T04:19:55.871Z,1.65
2018-10-01T04:24:59.166Z,1.92
2018-10-01T04:30:02.607Z,2.30
2018-10-01T04:35:05.956Z,2.83
2018-10-01T04:40:09.240Z,2.20
2018-10-01T04:45:12.577Z,3.90
2018-10-01T04:50:15.852Z,1.63
2018-10-01T04:55:19.154Z,2.03
2018-10-01T05:00:22.822Z,1.75
2018-10-01T05:05:26.096Z,2.65
2018-10-01T05:10:29.393Z,3.50
2018-10-01T05:15:32.697Z,1.98
2018-10-01T05:20:36.000Z,1.75
2018-10-01T05:25:39.303Z,1.57
2018-10-01T05:30:42.592Z,4.05
2018-10-01T05:35:45.873Z,1.20
2018-10-01T05:40:49.191Z,1.92
2018-10-01T05:45:52.480Z,2.65
2018-10-01T05:50:55.781Z,1.92
2018-10-01T05:55:59.088Z,1.42
2018-10-01T06:01:02.391Z,1.17
2018-10-01T06:06:05.702Z,2.17
2018-10-01T06:11:09.013Z,3.65
2018-10-01T06:16:12.283Z,1.82
2018-10-01T06:21:15.539Z,9.45
2018-10-01T06:26:18.803Z,11.18
2018-10-01T06:31:22.099Z,6.90
2018-10-01T06:36:25.450Z,6.55
2018-10-01T06:41:28.806Z,4.78
2018-10-01T06:46:32.040Z,4.72
2018-10-01T06:51:42.176Z,6.47
2018-10-01T06:56:45.463Z,7.05
2018-10-01T07:01:48.759Z,5.30
2018-10-01T07:06:52.067Z,4.72
2018-10-01T07:11:55.348Z,5.87
2018-10-01T07:16:58.703Z,5.03
2018-10-01T07:22:02.070Z,11.80
2018-10-01T07:27:05.353Z,4.80
2018-10-01T07:32:08.641Z,6.15
2018-10-01T07:37:11.957Z,3.97
2018-10-01T07:42:15.260Z,5.47
2018-10-01T07:47:18.557Z,2.83
2018-10-01T07:52:21.836Z,9.10
2018-10-01T07:57:25.138Z,4.10
2018-10-01T08:02:28.473Z,3.42
2018-10-01T08:07:31.692Z,3.55
2018-10-01T08:12:34.964Z,3.25
2018-10-01T08:17:38.221Z,2.65
2018-10-01T08:22:41.496Z,2.35
2018-10-01T08:27:44.753Z,4.22
2018-10-01T08:32:48.020Z,2.00
2018-10-01T08:37:51.580Z,2.67
2018-10-01T08:42:55.216Z,3.50
2018-10-01T08:47:58.609Z,1.92
2018-10-01T08:53:07.412Z,2.83
2018-10-01T08:58:10.611Z,3.12
2018-10-01T09:03:13.985Z,3.05
2018-10-01T09:08:17.252Z,1.70
2018-10-01T09:13:20.512Z,2.47
2018-10-01T09:18:23.772Z,3.77
2018-10-01T09:23:27.047Z,2.67
2018-10-01T09:28:30.311Z,2.70
2018-10-01T09:33:33.581Z,1.72
2018-10-01T09:38:36.893Z,2.65
2018-10-01T09:43:40.131Z,1.85
2018-10-01T09:48:43.433Z,1.98
2018-10-01T09:53:46.710Z,1.32
2018-10-01T09:58:49.981Z,3.10
2018-10-01T10:03:53.308Z,4.58
2018-10-01T10:08:56.531Z,3.67
2018-10-01T10:13:59.849Z,5.55
2018-10-01T10:19:03.237Z,6.78
2018-10-01T10:24:06.720Z,6.62
2018-10-01T10:29:09.984Z,9.85
2018-10-01T10:34:13.253Z,7.20
2018-10-01T10:39:16.556Z,9.75
2018-10-01T10:44:19.862Z,7.75
2018-10-01T10:49:23.128Z,6.62
2018-10-01T10:54:26.383Z,10.20
2018-10-01T10:59:29.635Z,5.75
2018-10-01T11:04:32.901Z,6.85
2018-10-01T11:09:36.179Z,8.93
2018-10-01T11:14:39.526Z,6.75
2018-10-01T11:19:42.752Z,5.70
2018-10-01T11:24:46.024Z,6.10
2018-10-01T11:29:49.300Z,6.10
2018-10-01T11:34:53.073Z,6.10
2018-10-01T11:39:56.289Z,3.30
2018-10-01T11:44:59.564Z,2.92
2018-10-01T11:50:02.940Z,3.47
2018-10-01T11:55:06.576Z,5.12
2018-10-01T12:00:10.365Z,2.75
2018-10-01T12:05:13.632Z,2.98
2018-10-01T12:10:16.957Z,2.23
2018-10-01T12:15:20.231Z,3.83
2018-10-01T12:20:23.460Z,2.70
2018-10-01T12:25:26.713Z,2.50
2018-10-01T12:30:30.245Z,2.83
2018-10-01T12:35:33.503Z,1.45
2018-10-01T12:40:36.779Z,4.28
2018-10-01T12:45:40.091Z,3.52
2018-10-01T12:50:43.376Z,3.00
2018-10-01T12:55:46.656Z,3.95
2018-10-01T13:00:49.940Z,2.70
2018-10-01T13:05:53.297Z,1.92
2018-10-01T13:10:56.588Z,4.53
2018-10-01T13:16:00.092Z,4.72
2018-10-01T13:21:03.385Z,1.90
2018-10-01T13:26:06.718Z,2.65
2018-10-01T13:31:10.052Z,2.30
2018-10-01T13:36:13.397Z,2.02
2018-10-01T13:41:16.800Z,1.98
2018-10-01T13:46:20.100Z,1.45
2018-10-01T13:51:23.421Z,6.62
2018-10-01T13:56:26.971Z,2.45
2018-10-01T14:01:30.333Z,1.85
2018-10-01T14:06:34.181Z,2.55
2018-10-01T14:11:38.365Z,2.47
2018-10-01T14:16:41.661Z,2.30
2018-10-01T14:21:44.987Z,4.03
2018-10-01T14:26:48.281Z,0.80
2018-10-01T14:31:51.588Z,2.77
2018-10-01T14:36:54.884Z,5.37
2018-10-01T14:41:58.238Z,1.75
2018-10-01T14:47:01.540Z,2.10
2018-10-01T14:52:04.822Z,2.55
2018-10-01T14:57:08.121Z,2.87
2018-10-01T15:02:11.399Z,3.98
2018-10-01T15:07:14.861Z,1.22
2018-10-01T15:12:18.295Z,2.50
2018-10-01T15:17:21.510Z,2.12
2018-10-01T15:22:25.032Z,0.98
2018-10-01T15:27:28.345Z,2.35
2018-10-01T15:32:31.640Z,2.40
2018-10-01T15:37:34.989Z,1.40
2018-10-01T15:42:38.322Z,1.45
2018-10-01T15:47:42.186Z,2.22
2018-10-01T15:52:45.704Z,3.72
2018-10-01T15:57:48.983Z,13.18
2018-10-01T16:02:52.425Z,22.00
2018-10-01T16:07:55.812Z,26.37
2018-10-01T16:12:59.196Z,30.32
2018-10-01T16:18:02.512Z,25.80
2018-10-01T16:23:05.804Z,24.25
2018-10-01T16:28:09.093Z,23.02
2018-10-01T16:33:12.509Z,27.48
2018-10-01T16:38:15.812Z,21.55
2018-10-01T16:43:19.465Z,15.53
2018-10-01T16:48:23.742Z,18.10
2018-10-01T16:53:27.264Z,17.90
2018-10-01T16:58:30.666Z,20.00
2018-10-01T17:03:34.097Z,11.90
2018-10-01T17:08:37.961Z,18.17
2018-10-01T17:13:41.441Z,10.90
2018-10-01T17:18:44.656Z,13.18
2018-10-01T17:23:48.105Z,11.53
2018-10-01T17:28:51.576Z,11.60
2018-10-01T17:33:54.856Z,12.23
2018-10-01T17:38:58.154Z,13.53
2018-10-01T17:44:02.300Z,12.05
2018-10-01T17:49:05.603Z,13.03
2018-10-01T17:54:08.912Z,9.78
2018-10-01T17:59:12.215Z,7.70
2018-10-01T18:04:15.584Z,8.25
2018-10-01T18:09:18.989Z,9.15
2018-10-01T18:14:22.424Z,6.60
2018-10-01T18:19:25.711Z,8.73
2018-10-01T18:24:29.042Z,10.10
2018-10-01T18:29:32.478Z,8.63
2018-10-01T18:34:35.899Z,7.80
2018-10-01T18:39:39.360Z,6.92
2018-10-01T18:44:42.884Z,6.40
2018-10-01T18:49:46.283Z,6.72
2018-10-01T18:54:49.553Z,7.45
2018-10-01T18:59:52.876Z,7.45
2018-10-01T19:04:56.133Z,6.42
2018-10-01T19:09:59.412Z,6.40
2018-10-01T19:15:02.946Z,8.58
2018-10-01T19:20:06.128Z,9.15
2018-10-01T19:25:09.564Z,5.10
2018-10-01T19:30:13.060Z,4.22
2018-10-01T19:35:16.328Z,4.80
2018-10-01T19:40:19.601Z,5.57
2018-10-01T19:45:22.876Z,6.47
2018-10-01T19:50:26.159Z,5.55
2018-10-01T19:55:29.556Z,5.10
2018-10-01T20:00:32.903Z,4.20
2018-10-01T20:05:36.137Z,3.35
2018-10-01T20:10:39.411Z,3.42
2018-10-01T20:15:42.684Z,5.03
2018-10-01T20:20:45.998Z,4.87
2018-10-01T20:25:49.328Z,4.45
2018-10-01T20:30:52.576Z,5.22
2018-10-01T20:35:56.024Z,6.70
2018-10-01T20:40:59.220Z,4.53
2018-10-01T20:46:02.487Z,3.00
2018-10-01T20:51:05.809Z,3.27
2018-10-01T20:56:09.103Z,3.60
2018-10-01T21:01:12.376Z,4.87
2018-10-01T21:06:15.639Z,2.67
2018-10-01T21:11:18.913Z,5.10
2018-10-01T21:16:22.171Z,4.90
2018-10-01T21:21:25.442Z,4.65
2018-10-01T21:26:28.716Z,3.50
2018-10-01T21:31:32.021Z,2.60
2018-10-01T21:36:35.329Z,4.60
2018-10-01T21:41:38.641Z,2.92
2018-10-01T21:46:41.912Z,3.27
2018-10-01T21:51:45.221Z,3.85
2018-10-01T21:56:48.496Z,5.60
2018-10-01T22:01:56.087Z,3.97
2018-10-01T22:06:59.347Z,5.25
2018-10-01T22:12:02.628Z,3.40
2018-10-01T22:17:05.903Z,5.45
2018-10-01T22:22:09.589Z,1.87
2018-10-01T22:27:12.919Z,3.47
2018-10-01T22:32:16.302Z,2.35
2018-10-01T22:37:19.659Z,4.33
2018-10-01T22:42:22.952Z,2.60
2018-10-01T22:47:26.332Z,3.98
2018-10-01T22:52:29.596Z,2.40
2018-10-01T22:57:32.934Z,2.37
2018-10-01T23:02:36.255Z,3.10
2018-10-01T23:07:39.512Z,1.98
2018-10-01T23:12:42.771Z,2.85
2018-10-01T23:17:46.031Z,3.17
2018-10-01T23:22:49.499Z,1.90
2018-10-01T23:27:52.763Z,2.85
2018-10-01T23:32:56.019Z,1.42
2018-10-01T23:37:59.284Z,2.22
2018-10-01T23:43:02.567Z,2.33
2018-10-01T23:48:06.055Z,2.37
2018-10-01T23:53:09.315Z,2.92
2018-10-01T23:58:12.577Z,3.02
